Time;durP1;ratioP1;P1;durP2;ratioP2;P2;SDS_P1;SDS_P2;PMS_P1;PMS_P2;Temp;Humidity;BMP_temperature;BMP_pressure;BME280_temperature;BME280_humidity;BME280_pressure;Samples;Min_cycle;Max_cycle;Signal;HPM_P1;HPM_P2
2023/04/10 00:00:09;;;;;;;46.05;38.13;;;8.00;99.90;;;;;;5046770;28;20814;-77
2023/04/10 00:02:36;;;;;;;44.00;34.60;;;8.00;99.90;;;;;;5046485;28;20480;-77
2023/04/10 00:05:02;;;;;;;45.78;35.63;;;7.90;99.90;;;;;;5046524;28;20787;-77
2023/04/10 00:07:28;;;;;;;46.13;36.37;;;8.00;99.90;;;;;;5045559;28;20477;-77
2023/04/10 00:09:54;;;;;;;45.83;35.53;;;7.90;99.90;;;;;;5028141;28;21002;-76
2023/04/10 00:12:19;;;;;;;44.00;35.47;;;7.80;99.90;;;;;;5028435;28;20490;-77
2023/04/10 00:14:45;;;;;;;46.20;36.30;;;7.90;99.90;;;;;;5046066;28;20492;-77
2023/04/10 00:17:11;;;;;;;45.72;37.13;;;7.90;99.90;;;;;;5046133;28;20424;-79
2023/04/10 00:19:36;;;;;;;46.42;36.45;;;7.80;99.90;;;;;;5046796;28;20492;-77
2023/04/10 00:22:03;;;;;;;43.40;36.35;;;7.80;99.90;;;;;;5047466;28;20495;-77
2023/04/10 00:24:29;;;;;;;41.58;34.13;;;7.70;99.90;;;;;;5044786;28;20582;-77
2023/04/10 00:26:56;;;;;;;45.67;35.88;;;7.80;99.90;;;;;;5046346;28;21356;-76
2023/04/10 00:29:22;;;;;;;43.17;35.45;;;7.70;99.90;;;;;;5046258;28;20544;-77
2023/04/10 00:31:48;;;;;;;44.20;36.30;;;7.60;99.90;;;;;;5027246;28;20413;-77
2023/04/10 00:34:14;;;;;;;44.95;35.60;;;7.60;99.90;;;;;;5045885;28;20425;-77
2023/04/10 00:36:40;;;;;;;42.60;36.87;;;7.60;99.90;;;;;;5045556;28;20931;-77
2023/04/10 00:39:06;;;;;;;44.80;36.53;;;7.50;99.90;;;;;;5044671;28;20477;-76
2023/04/10 00:41:32;;;;;;;45.65;37.85;;;7.50;99.90;;;;;;5045983;28;20764;-78
2023/04/10 00:43:59;;;;;;;46.45;37.05;;;7.50;99.90;;;;;;5028189;28;20433;-76
2023/04/10 00:46:24;;;;;;;44.13;35.90;;;7.50;99.90;;;;;;5028621;28;20815;-78
2023/04/10 00:48:52;;;;;;;41.80;36.25;;;7.40;99.90;;;;;;5047149;28;20405;-77
2023/04/10 00:51:20;;;;;;;45.13;37.28;;;7.30;99.90;;;;;;5048466;28;20411;-77
2023/04/10 00:53:50;;;;;;;46.75;37.17;;;7.30;99.90;;;;;;5045427;28;20407;-77
2023/04/10 00:56:18;;;;;;;42.70;35.85;;;7.30;99.90;;;;;;5030195;28;20814;-77
2023/04/10 00:58:44;;;;;;;45.70;36.20;;;7.20;99.90;;;;;;5048809;28;20962;-76
2023/04/10 01:01:10;;;;;;;44.77;38.00;;;7.20;99.90;;;;;;5046286;28;20433;-76
2023/04/10 01:03:37;;;;;;;46.22;37.25;;;7.20;99.90;;;;;;5045179;28;20422;-79
2023/04/10 01:06:26;;;;;;;44.50;36.80;;;7.20;99.90;;;;;;5045019;28;20895;-76
2023/04/10 01:09:28;;;;;;;43.95;36.95;;;7.20;99.90;;;;;;5034908;28;20449;-78
2023/04/10 01:11:59;;;;;;;43.53;35.57;;;7.10;99.90;;;;;;5027611;28;20441;-77
2023/04/10 01:14:37;;;;;;;44.03;35.80;;;7.20;99.90;;;;;;5045453;28;20413;-77
2023/04/10 01:17:16;;;;;;;47.15;37.05;;;7.20;99.90;;;;;;5045543;28;20408;-76
2023/04/10 01:20:10;;;;;;;44.72;36.13;;;7.10;99.90;;;;;;5027589;28;20436;-77
2023/04/10 01:22:48;;;;;;;43.97;36.22;;;7.10;99.90;;;;;;5018087;28;20447;-79
2023/04/10 01:25:40;;;;;;;45.55;35.28;;;7.10;99.90;;;;;;5045322;28;20440;-77
2023/04/10 01:28:17;;;;;;;44.43;35.93;;;7.10;99.90;;;;;;5045597;28;20430;-79
2023/04/10 01:30:46;;;;;;;44.13;36.22;;;7.10;99.90;;;;;;5045180;28;20451;-77
2023/04/10 01:33:16;;;;;;;46.27;37.17;;;7.10;99.90;;;;;;5044782;28;20393;-78
2023/04/10 01:35:46;;;;;;;47.30;37.78;;;7.00;99.90;;;;;;5044272;28;20422;-76
2023/04/10 01:38:15;;;;;;;45.80;36.05;;;7.00;99.90;;;;;;5026195;28;20409;-77
2023/04/10 01:40:47;;;;;;;47.90;37.03;;;7.10;99.90;;;;;;5026771;28;20424;-75
2023/04/10 01:43:14;;;;;;;46.87;38.37;;;7.10;99.90;;;;;;5010409;28;20405;-76
2023/04/10 01:45:42;;;;;;;45.22;36.88;;;7.10;99.90;;;;;;5044667;28;20780;-77
2023/04/10 01:48:09;;;;;;;44.10;35.63;;;7.00;99.90;;;;;;5044855;28;20398;-78
2023/04/10 01:50:35;;;;;;;46.22;37.42;;;7.00;99.90;;;;;;5045665;28;20441;-78
2023/04/10 01:53:05;;;;;;;46.95;37.85;;;7.00;99.90;;;;;;5044271;28;20993;-77
2023/04/10 01:55:32;;;;;;;44.55;38.40;;;7.00;99.90;;;;;;5045140;28;20401;-76
2023/04/10 01:57:58;;;;;;;48.95;39.72;;;7.00;99.90;;;;;;5044484;28;20915;-77
2023/04/10 02:00:24;;;;;;;45.03;36.73;;;6.90;99.90;;;;;;5044612;28;20405;-77
2023/04/10 02:02:50;;;;;;;50.67;39.95;;;6.90;99.90;;;;;;5010254;28;20475;-76
2023/04/10 02:05:16;;;;;;;49.13;39.63;;;6.90;99.90;;;;;;5026719;28;20928;-77
2023/04/10 02:07:55;;;;;;;49.95;40.47;;;7.00;99.90;;;;;;5043794;28;20401;-76
2023/04/10 02:10:23;;;;;;;47.77;39.20;;;6.80;99.90;;;;;;5027870;28;20409;-79
2023/04/10 02:12:58;;;;;;;50.30;39.90;;;6.90;99.90;;;;;;5026546;28;20760;-77
2023/04/10 02:15:27;;;;;;;48.97;40.40;;;6.90;99.90;;;;;;5044398;28;20990;-76
2023/04/10 02:17:55;;;;;;;49.20;41.47;;;6.80;99.90;;;;;;5048162;28;20961;-75
2023/04/10 02:20:22;;;;;;;50.53;40.22;;;6.90;99.90;;;;;;5048595;28;20891;-76
2023/04/10 02:22:48;;;;;;;49.08;41.28;;;6.80;99.90;;;;;;5047553;28;20484;-77
2023/04/10 02:25:15;;;;;;;49.47;40.70;;;6.80;99.90;;;;;;5048599;28;20432;-77
2023/04/10 02:27:41;;;;;;;53.05;41.83;;;6.70;99.90;;;;;;5048911;28;20863;-76
2023/04/10 02:30:07;;;;;;;51.55;43.15;;;6.70;99.90;;;;;;5049145;28;20485;-77
2023/04/10 02:32:33;;;;;;;54.78;41.53;;;6.70;99.90;;;;;;5048850;28;20410;-77
2023/04/10 02:35:00;;;;;;;53.33;44.20;;;6.70;99.90;;;;;;5048111;28;20405;-78
2023/04/10 02:37:26;;;;;;;52.70;43.90;;;6.70;99.90;;;;;;5029436;28;20413;-76
2023/04/10 02:39:53;;;;;;;55.10;43.08;;;6.70;99.90;;;;;;5030258;28;20723;-76
2023/04/10 02:42:19;;;;;;;55.72;44.25;;;6.60;99.90;;;;;;5048149;28;21065;-76
2023/04/10 02:44:46;;;;;;;50.90;43.42;;;6.70;99.90;;;;;;5047945;28;20512;-75
2023/04/10 02:47:12;;;;;;;52.33;43.50;;;6.60;99.90;;;;;;5048233;28;20445;-77
2023/04/10 02:49:38;;;;;;;53.95;42.95;;;6.60;99.90;;;;;;5047389;28;20844;-76
2023/04/10 02:52:04;;;;;;;53.20;42.47;;;6.60;99.90;;;;;;5047145;28;20419;-76
2023/04/10 02:54:29;;;;;;;54.22;42.97;;;6.70;99.90;;;;;;5047684;28;20520;-77
2023/04/10 02:56:59;;;;;;;51.67;41.38;;;6.70;99.90;;;;;;5047330;28;20721;-77
2023/04/10 02:59:24;;;;;;;51.33;44.05;;;6.80;99.90;;;;;;5047877;28;20397;-76
2023/04/10 03:01:51;;;;;;;54.53;45.30;;;6.70;99.90;;;;;;5046945;28;20433;-77
2023/04/10 03:04:17;;;;;;;53.83;44.00;;;6.70;99.90;;;;;;5047636;28;20529;-75
2023/04/10 03:06:44;;;;;;;54.72;44.65;;;6.70;99.90;;;;;;5047146;28;20749;-77
2023/04/10 03:09:09;;;;;;;53.70;44.30;;;6.70;99.90;;;;;;5028526;28;20938;-77
2023/04/10 03:11:35;;;;;;;56.47;45.53;;;6.70;99.90;;;;;;5047960;28;20401;-77
2023/04/10 03:14:01;;;;;;;54.33;44.37;;;6.70;99.90;;;;;;5048099;28;20441;-77
2023/04/10 03:16:26;;;;;;;54.67;44.47;;;6.60;99.90;;;;;;5048272;28;20735;-76
2023/04/10 03:18:52;;;;;;;55.00;46.10;;;6.60;99.90;;;;;;5047165;28;20485;-77
2023/04/10 03:21:18;;;;;;;55.23;45.10;;;6.50;99.90;;;;;;5048092;28;20416;-75
2023/04/10 03:23:44;;;;;;;56.10;44.93;;;6.40;99.90;;;;;;5048033;28;20441;-77
2023/04/10 03:26:10;;;;;;;55.43;44.40;;;6.40;99.90;;;;;;5048961;28;20760;-76
2023/04/10 03:28:35;;;;;;;50.05;42.10;;;6.40;99.90;;;;;;5046555;28;20437;-77
2023/04/10 03:31:05;;;;;;;53.97;43.23;;;6.40;99.90;;;;;;5047851;28;20633;-79
2023/04/10 03:33:30;;;;;;;48.25;41.65;;;6.40;99.90;;;;;;5047345;28;20455;-77
2023/04/10 03:35:56;;;;;;;53.03;42.50;;;6.40;99.90;;;;;;5029289;28;20414;-75
2023/04/10 03:38:22;;;;;;;52.58;43.60;;;6.40;99.90;;;;;;5028541;28;20967;-77
2023/04/10 03:40:48;;;;;;;56.08;42.58;;;6.50;99.90;;;;;;5046971;28;20425;-78
2023/04/10 03:43:14;;;;;;;51.20;40.97;;;6.50;99.90;;;;;;5046753;28;20402;-78
2023/04/10 03:45:41;;;;;;;55.57;42.90;;;6.50;99.90;;;;;;5046859;28;20752;-79
2023/04/10 03:48:07;;;;;;;51.65;41.22;;;6.50;99.90;;;;;;5047173;28;20401;-78
2023/04/10 03:50:33;;;;;;;46.65;38.67;;;6.40;99.90;;;;;;5047028;28;20424;-77
2023/04/10 03:53:00;;;;;;;48.53;41.03;;;6.40;99.90;;;;;;5029694;28;20824;-77
2023/04/10 03:55:25;;;;;;;47.50;39.90;;;6.40;99.90;;;;;;5047763;28;20433;-77
2023/04/10 03:57:51;;;;;;;49.13;39.38;;;6.40;99.90;;;;;;5046361;28;20434;-76
2023/04/10 04:00:17;;;;;;;47.07;37.90;;;6.50;99.90;;;;;;5047903;28;20901;-77
2023/04/10 04:02:43;;;;;;;47.85;40.10;;;6.50;99.90;;;;;;5047474;28;20405;-75
2023/04/10 04:05:09;;;;;;;48.25;40.65;;;6.60;99.90;;;;;;5028429;28;20765;-76
2023/04/10 04:07:34;;;;;;;47.15;39.38;;;6.70;99.90;;;;;;5046365;28;20747;-77
2023/04/10 04:10:00;;;;;;;47.95;39.55;;;6.70;99.90;;;;;;5046652;28;20886;-77
2023/04/10 04:12:26;;;;;;;46.10;38.55;;;6.70;99.90;;;;;;5028805;28;20420;-76
2023/04/10 04:14:52;;;;;;;47.73;39.40;;;6.60;99.90;;;;;;5028740;28;20637;-77
2023/04/10 04:17:18;;;;;;;47.63;39.50;;;6.70;99.90;;;;;;5046290;28;20433;-76
2023/04/10 04:19:43;;;;;;;47.83;39.90;;;6.60;99.90;;;;;;5045736;28;20421;-77
2023/04/10 04:22:10;;;;;;;47.73;39.63;;;6.60;99.90;;;;;;5044663;28;20468;-75
2023/04/10 04:24:36;;;;;;;48.92;41.03;;;6.70;99.90;;;;;;5045842;28;20431;-78
2023/04/10 04:27:02;;;;;;;46.63;38.20;;;6.70;99.90;;;;;;5046468;28;20398;-79
2023/04/10 04:29:28;;;;;;;46.17;38.33;;;6.70;99.90;;;;;;5045965;28;20416;-77
2023/04/10 04:31:54;;;;;;;44.80;37.60;;;6.70;99.90;;;;;;5045382;28;20405;-75
2023/04/10 04:34:19;;;;;;;43.50;36.88;;;6.70;99.90;;;;;;5045620;28;20484;-75
2023/04/10 04:36:45;;;;;;;44.92;37.28;;;6.80;99.90;;;;;;5044356;28;20401;-76
2023/04/10 04:39:10;;;;;;;44.03;35.58;;;6.80;99.90;;;;;;5046157;28;20418;-76
2023/04/10 04:41:36;;;;;;;45.10;36.90;;;6.80;99.90;;;;;;5045658;28;20401;-78
2023/04/10 04:44:02;;;;;;;45.97;36.43;;;6.80;99.90;;;;;;5046095;28;20413;-76
2023/04/10 04:46:28;;;;;;;43.43;36.13;;;6.90;99.90;;;;;;5045383;28;20745;-78
2023/04/10 04:48:54;;;;;;;45.20;37.60;;;6.80;99.90;;;;;;5045103;28;20417;-76
2023/04/10 04:51:19;;;;;;;43.92;36.15;;;6.80;99.90;;;;;;5045655;28;20464;-77
2023/04/10 04:53:45;;;;;;;43.20;34.03;;;7.00;99.90;;;;;;5044418;28;20900;-77
2023/04/10 04:56:10;;;;;;;40.93;35.43;;;7.00;99.90;;;;;;5045335;28;20409;-78
2023/04/10 04:58:37;;;;;;;42.07;35.20;;;7.00;99.90;;;;;;5045454;28;20828;-78
2023/04/10 05:01:02;;;;;;;42.85;36.33;;;7.00;99.90;;;;;;5045410;28;20432;-75
2023/04/10 05:03:28;;;;;;;40.90;33.60;;;7.00;99.90;;;;;;5045154;28;20451;-78
2023/04/10 05:05:54;;;;;;;44.53;35.75;;;7.00;99.90;;;;;;5025181;28;20774;-77
2023/04/10 05:08:20;;;;;;;39.97;32.10;;;7.00;99.90;;;;;;5024275;28;20426;-75
2023/04/10 05:10:46;;;;;;;40.43;33.60;;;7.10;99.90;;;;;;5025166;28;20396;-76
2023/04/10 05:13:12;;;;;;;41.53;33.63;;;7.10;99.90;;;;;;5023473;28;20403;-75
2023/04/10 05:15:38;;;;;;;40.23;32.30;;;7.10;99.90;;;;;;5024907;28;20434;-77
2023/04/10 05:18:04;;;;;;;36.72;31.05;;;7.10;99.90;;;;;;5023710;28;20949;-77
2023/04/10 05:20:30;;;;;;;37.88;31.33;;;7.20;99.90;;;;;;5024995;28;20410;-76
2023/04/10 05:22:57;;;;;;;34.00;30.30;;;7.10;99.90;;;;;;5023590;28;20411;-76
2023/04/10 05:25:23;;;;;;;35.17;28.03;;;7.20;99.90;;;;;;5024855;28;20792;-77
2023/04/10 05:27:48;;;;;;;33.25;29.02;;;7.20;99.90;;;;;;5024777;28;20450;-74
2023/04/10 05:30:14;;;;;;;34.03;28.77;;;7.30;99.90;;;;;;5024813;28;21167;-75
2023/04/10 05:32:40;;;;;;;34.92;28.08;;;7.30;99.90;;;;;;5023198;28;20414;-76
2023/04/10 05:35:06;;;;;;;33.88;28.60;;;7.30;99.90;;;;;;5024896;28;20411;-76
2023/04/10 05:37:31;;;;;;;37.03;28.42;;;7.40;99.90;;;;;;5024393;28;20465;-78
2023/04/10 05:39:58;;;;;;;32.00;27.25;;;7.40;99.90;;;;;;5024428;28;20407;-76
2023/04/10 05:42:24;;;;;;;33.60;27.95;;;7.50;99.90;;;;;;5025061;28;20506;-76
2023/04/10 05:44:51;;;;;;;33.75;27.90;;;7.60;99.90;;;;;;5023114;28;20510;-76
2023/04/10 05:47:17;;;;;;;30.70;26.20;;;7.50;99.90;;;;;;5025204;28;20402;-77
2023/04/10 05:49:43;;;;;;;31.10;26.15;;;7.70;99.90;;;;;;5024421;28;20897;-77
2023/04/10 05:52:08;;;;;;;32.10;26.40;;;7.80;99.90;;;;;;5023658;28;20403;-75
2023/04/10 05:54:34;;;;;;;30.17;25.43;;;7.90;99.90;;;;;;5025080;28;20813;-78
2023/04/10 05:57:00;;;;;;;31.87;25.87;;;8.00;99.90;;;;;;5023258;28;20414;-76
2023/04/10 05:59:26;;;;;;;26.95;23.48;;;8.10;99.90;;;;;;5024851;28;20425;-77
2023/04/10 06:01:52;;;;;;;31.48;25.88;;;8.20;99.90;;;;;;5024538;28;20415;-77
2023/04/10 06:04:20;;;;;;;30.17;25.63;;;8.10;99.90;;;;;;5031264;28;20471;-77
2023/04/10 06:06:45;;;;;;;28.55;23.73;;;8.20;99.90;;;;;;5043571;28;20408;-77
2023/04/10 06:09:11;;;;;;;31.08;25.15;;;8.40;99.90;;;;;;5026890;28;20414;-78
2023/04/10 06:11:37;;;;;;;27.23;22.58;;;8.40;99.90;;;;;;5044245;28;20896;-77
2023/04/10 06:14:02;;;;;;;28.50;23.90;;;8.60;99.90;;;;;;5027042;28;20534;-77
2023/04/10 06:16:28;;;;;;;27.65;23.17;;;9.00;99.90;;;;;;5026474;28;20405;-76
2023/04/10 06:18:54;;;;;;;28.65;24.33;;;8.90;99.90;;;;;;5044520;28;20418;-76
2023/04/10 06:21:20;;;;;;;25.30;22.20;;;8.90;99.90;;;;;;5010238;28;20437;-76
2023/04/10 06:23:45;;;;;;;25.58;21.83;;;8.90;99.90;;;;;;5010113;28;20421;-76
2023/04/10 06:26:11;;;;;;;25.55;21.60;;;9.10;99.90;;;;;;5044955;28;20421;-76
2023/04/10 06:28:37;;;;;;;24.88;22.20;;;9.20;99.90;;;;;;5045811;28;20428;-76
2023/04/10 06:31:05;;;;;;;27.02;21.48;;;9.20;99.90;;;;;;5045969;28;20778;-77
2023/04/10 06:33:31;;;;;;;27.02;21.60;;;9.20;99.90;;;;;;5045214;28;20987;-77
2023/04/10 06:35:57;;;;;;;26.38;21.92;;;9.20;99.90;;;;;;5044931;28;20420;-75
2023/04/10 06:38:23;;;;;;;24.00;20.63;;;9.40;99.90;;;;;;5044497;28;20633;-77
2023/04/10 06:40:49;;;;;;;25.05;19.92;;;9.30;99.90;;;;;;5044495;28;20406;-77
2023/04/10 06:43:14;;;;;;;24.75;20.75;;;9.40;99.90;;;;;;5044863;28;20410;-75
2023/04/10 06:45:40;;;;;;;24.48;20.45;;;9.70;99.90;;;;;;5044331;28;20408;-75
2023/04/10 06:48:06;;;;;;;27.23;20.23;;;9.50;99.90;;;;;;5044913;28;20410;-76
2023/04/10 06:50:32;;;;;;;28.03;20.77;;;9.50;99.90;;;;;;5045445;28;20633;-76
2023/04/10 06:52:58;;;;;;;28.57;19.57;;;9.40;99.90;;;;;;5044361;28;20409;-76
2023/04/10 06:55:25;;;;;;;25.07;19.70;;;9.80;99.90;;;;;;5045650;28;20515;-76
2023/04/10 06:57:51;;;;;;;22.23;19.20;;;10.40;99.90;;;;;;5046305;28;20463;-75
2023/04/10 07:00:18;;;;;;;22.27;18.73;;;11.10;99.90;;;;;;5029171;28;20402;-76
2023/04/10 07:02:44;;;;;;;22.75;19.17;;;11.20;99.90;;;;;;5049239;28;20405;-76
2023/04/10 07:05:10;;;;;;;19.98;17.80;;;11.30;99.90;;;;;;5034959;28;20516;-76
2023/04/10 07:07:36;;;;;;;22.50;18.20;;;11.20;99.90;;;;;;5049196;28;20468;-78
2023/04/10 07:10:02;;;;;;;23.07;19.07;;;10.90;99.90;;;;;;5050640;28;20405;-79
2023/04/10 07:12:28;;;;;;;24.43;19.30;;;10.70;99.90;;;;;;5051986;28;20416;-76
2023/04/10 07:14:54;;;;;;;21.37;17.83;;;10.70;99.90;;;;;;5051552;28;20440;-77
2023/04/10 07:17:20;;;;;;;20.47;18.27;;;10.50;99.90;;;;;;5051500;28;20425;-75
2023/04/10 07:19:45;;;;;;;23.27;17.33;;;10.70;99.90;;;;;;5051383;28;20830;-78
2023/04/10 07:22:11;;;;;;;24.57;18.03;;;10.90;99.90;;;;;;5050347;28;20508;-76
2023/04/10 07:24:37;;;;;;;21.97;18.33;;;10.70;99.90;;;;;;5051186;28;20429;-77
2023/04/10 07:27:02;;;;;;;23.47;17.63;;;11.00;99.90;;;;;;5033084;28;20447;-78
2023/04/10 07:29:29;;;;;;;20.40;17.47;;;11.00;99.90;;;;;;5050646;28;20405;-78
2023/04/10 07:31:55;;;;;;;22.38;18.25;;;11.20;99.90;;;;;;5051836;28;20492;-76
2023/04/10 07:34:20;;;;;;;25.88;18.30;;;11.40;99.90;;;;;;5051905;28;20440;-78
2023/04/10 07:36:47;;;;;;;18.50;16.45;;;11.50;99.90;;;;;;5050301;28;20416;-79
2023/04/10 07:39:12;;;;;;;20.48;17.10;;;11.80;99.90;;;;;;5052065;28;20823;-78
2023/04/10 07:41:39;;;;;;;20.90;17.10;;;11.80;99.90;;;;;;5051660;28;20499;-78
2023/04/10 07:44:05;;;;;;;21.93;16.63;;;12.00;99.90;;;;;;5052078;28;20421;-76
2023/04/10 07:46:30;;;;;;;18.05;15.85;;;11.90;99.90;;;;;;5048938;28;20439;-77
2023/04/10 07:48:56;;;;;;;19.97;16.47;;;12.10;99.90;;;;;;5030040;28;20819;-76
2023/04/10 07:51:22;;;;;;;19.10;16.30;;;11.90;99.90;;;;;;5046254;28;20417;-76
2023/04/10 07:53:48;;;;;;;16.58;14.82;;;11.90;99.90;;;;;;5046998;28;20405;-78
2023/04/10 07:56:18;;;;;;;21.23;16.60;;;12.00;99.90;;;;;;5013015;28;20418;-77
2023/04/10 07:58:44;;;;;;;19.70;16.38;;;12.00;99.90;;;;;;5028671;28;20405;-79
2023/04/10 08:01:10;;;;;;;17.57;15.10;;;12.10;99.90;;;;;;5046889;28;20418;-77
2023/04/10 08:03:44;;;;;;;20.50;16.10;;;12.20;99.90;;;;;;5047570;28;20414;-79
2023/04/10 08:06:11;;;;;;;19.13;16.17;;;12.20;99.90;;;;;;5046912;28;20439;-79
2023/04/10 08:08:38;;;;;;;18.43;15.77;;;12.30;99.90;;;;;;5047556;28;20602;-78
2023/04/10 08:11:21;;;;;;;19.23;16.23;;;12.40;99.90;;;;;;5047913;28;20398;-77
2023/04/10 08:13:47;;;;;;;19.92;17.73;;;12.40;99.90;;;;;;5046930;28;20440;-76
2023/04/10 08:16:13;;;;;;;19.38;15.73;;;12.50;99.90;;;;;;5047283;28;20409;-77
2023/04/10 08:18:39;;;;;;;19.73;15.53;;;12.60;99.90;;;;;;5029699;28;20539;-76
2023/04/10 08:21:05;;;;;;;17.73;15.83;;;12.80;99.90;;;;;;5046676;28;20409;-78
2023/04/10 08:23:30;;;;;;;17.83;15.93;;;13.00;99.90;;;;;;5047007;28;20492;-79
2023/04/10 08:25:56;;;;;;;20.53;17.03;;;12.90;99.90;;;;;;5046712;28;20513;-77
2023/04/10 08:28:23;;;;;;;17.50;15.48;;;13.00;99.90;;;;;;5047323;28;20567;-78
2023/04/10 08:30:48;;;;;;;19.60;16.08;;;12.90;99.90;;;;;;5046737;28;20420;-78
2023/04/10 08:33:14;;;;;;;17.80;15.90;;;13.00;99.90;;;;;;5046636;28;20417;-78
2023/04/10 08:35:40;;;;;;;18.52;16.50;;;13.20;99.90;;;;;;5046317;28;20406;-78
2023/04/10 08:38:05;;;;;;;18.73;16.73;;;13.40;99.90;;;;;;5046805;28;20428;-82
2023/04/10 08:40:36;;;;;;;19.10;16.73;;;13.40;99.90;;;;;;5049381;28;20409;-77
2023/04/10 08:43:01;;;;;;;16.98;15.18;;;13.30;99.90;;;;;;5049276;28;20497;-77
2023/04/10 08:45:27;;;;;;;19.50;17.00;;;13.30;99.90;;;;;;5048352;28;20500;-79
2023/04/10 08:47:56;;;;;;;16.67;14.97;;;13.40;99.90;;;;;;5047132;28;20405;-76
2023/04/10 08:50:22;;;;;;;17.80;15.90;;;13.30;99.90;;;;;;5048330;28;20397;-76
2023/04/10 08:52:51;;;;;;;15.93;14.25;;;13.40;99.90;;;;;;5027867;28;20900;-77
2023/04/10 08:55:18;;;;;;;17.05;13.88;;;13.70;99.90;;;;;;5046243;28;20414;-76
2023/04/10 08:57:45;;;;;;;15.10;13.25;;;13.60;99.90;;;;;;5028165;28;20401;-76
2023/04/10 09:00:11;;;;;;;15.30;13.75;;;13.80;99.90;;;;;;5047007;28;20772;-77
2023/04/10 09:02:39;;;;;;;15.55;13.70;;;13.90;99.90;;;;;;5032070;28;20405;-78
2023/04/10 09:05:06;;;;;;;14.25;12.32;;;13.80;99.90;;;;;;5046257;28;20496;-77
2023/04/10 09:07:32;;;;;;;14.38;12.85;;;13.70;99.90;;;;;;5044588;28;20408;-79
2023/04/10 09:09:58;;;;;;;13.97;12.47;;;13.70;99.90;;;;;;5045655;28;20410;-76
2023/04/10 09:12:24;;;;;;;15.27;12.70;;;13.80;99.90;;;;;;5045922;28;20404;-76
2023/04/10 09:14:52;;;;;;;15.23;13.38;;;14.00;99.90;;;;;;5028015;28;20417;-78
2023/04/10 09:17:20;;;;;;;15.20;13.65;;;14.10;99.90;;;;;;5045901;28;20809;-78
2023/04/10 09:19:48;;;;;;;13.75;12.35;;;14.20;99.90;;;;;;5045445;28;20908;-76
2023/04/10 09:22:15;;;;;;;13.48;12.07;;;14.50;99.90;;;;;;5044884;28;20405;-77
2023/04/10 09:24:45;;;;;;;12.70;11.40;;;14.40;99.90;;;;;;5046060;28;20424;-76
2023/04/10 09:27:37;;;;;;;12.82;11.23;;;14.30;99.90;;;;;;5045335;28;20408;-77
2023/04/10 09:30:04;;;;;;;12.73;11.35;;;14.20;99.90;;;;;;5048155;28;20416;-77
2023/04/10 09:32:35;;;;;;;11.88;10.68;;;14.40;99.90;;;;;;5049712;28;20393;-76
2023/04/10 09:35:01;;;;;;;13.93;12.00;;;14.40;99.90;;;;;;5046470;28;20445;-76
2023/04/10 09:37:34;;;;;;;13.57;12.27;;;14.50;99.90;;;;;;5044589;28;20484;-77
2023/04/10 09:40:00;;;;;;;13.07;11.77;;;14.40;99.90;;;;;;5045061;28;20488;-76
2023/04/10 09:42:31;;;;;;;12.35;11.05;;;14.60;99.90;;;;;;5045418;28;20413;-77
2023/04/10 09:44:57;;;;;;;11.82;10.52;;;14.60;99.90;;;;;;5044752;28;20432;-77
2023/04/10 09:47:25;;;;;;;12.90;11.60;;;14.80;99.90;;;;;;5026759;28;20473;-78
2023/04/10 09:49:52;;;;;;;13.27;11.88;;;14.80;99.90;;;;;;5044818;28;20417;-77
2023/04/10 09:52:25;;;;;;;13.75;12.30;;;14.90;99.90;;;;;;5044637;28;20962;-78
2023/04/10 09:54:59;;;;;;;13.18;11.82;;;14.70;99.90;;;;;;5045234;28;20408;-76
2023/04/10 09:57:28;;;;;;;12.15;10.95;;;14.80;99.90;;;;;;5047067;28;20405;-78
2023/04/10 09:59:59;;;;;;;12.18;9.93;;;15.10;99.90;;;;;;5047154;28;20412;-77
2023/04/10 10:02:28;;;;;;;12.38;11.18;;;15.20;99.90;;;;;;5047559;28;20402;-76
2023/04/10 10:04:54;;;;;;;12.43;10.57;;;14.80;99.90;;;;;;5046309;28;20436;-76
2023/04/10 10:07:21;;;;;;;12.00;10.80;;;14.90;99.90;;;;;;5046121;28;20456;-77
2023/04/10 10:09:51;;;;;;;9.90;8.77;;;14.70;99.90;;;;;;5049645;28;20120;-77
2023/04/10 10:12:39;;;;;;;12.83;9.47;;;14.70;99.90;;;;;;5046963;28;20037;-76
2023/04/10 10:15:11;;;;;;;9.80;8.77;;;14.50;99.90;;;;;;5046756;28;20333;-78
2023/04/10 10:17:50;;;;;;;9.13;7.32;;;14.50;99.90;;;;;;5046526;28;20492;-79
2023/04/10 10:20:17;;;;;;;9.27;8.00;;;14.60;99.90;;;;;;5046928;28;20037;-77
2023/04/10 10:22:44;;;;;;;9.38;7.90;;;14.70;99.90;;;;;;5045261;28;20048;-78
2023/04/10 10:25:11;;;;;;;10.93;8.05;;;14.50;99.90;;;;;;5046181;28;20444;-78
2023/04/10 10:27:38;;;;;;;10.65;7.72;;;14.40;99.90;;;;;;5011475;28;20392;-79
2023/04/10 10:30:08;;;;;;;14.15;10.45;;;14.40;99.90;;;;;;5046014;28;20045;-78
2023/04/10 10:32:35;;;;;;;8.30;7.43;;;14.40;99.90;;;;;;5046184;28;20419;-77
2023/04/10 10:35:06;;;;;;;11.27;8.13;;;14.50;99.90;;;;;;5045848;28;20041;-78
2023/04/10 10:37:33;;;;;;;9.68;8.70;;;14.40;99.90;;;;;;5047217;28;20090;-78
2023/04/10 10:40:15;;;;;;;9.35;7.90;;;14.50;99.90;;;;;;5049322;28;20137;-77
2023/04/10 10:43:00;;;;;;;9.80;7.97;;;14.50;99.90;;;;;;5032262;28;20056;-77
2023/04/10 10:45:36;;;;;;;9.93;8.93;;;14.40;99.90;;;;;;5049096;28;20550;-78
2023/04/10 10:48:02;;;;;;;10.77;8.02;;;14.40;99.90;;;;;;5049929;28;20128;-77
2023/04/10 10:50:49;;;;;;;8.10;7.28;;;14.70;99.90;;;;;;5031934;28;20336;-79
2023/04/10 10:53:41;;;;;;;7.63;6.75;;;14.60;99.90;;;;;;5031246;28;20514;-78
2023/04/10 10:56:19;;;;;;;8.68;7.55;;;14.50;99.90;;;;;;5031140;28;20048;-78
2023/04/10 10:58:46;;;;;;;9.35;8.35;;;14.70;99.90;;;;;;5048752;28;20040;-77
2023/04/10 11:01:12;;;;;;;9.38;8.15;;;14.70;99.90;;;;;;5049054;28;20086;-77
2023/04/10 11:03:39;;;;;;;10.10;8.27;;;14.70;99.90;;;;;;5030542;28;20045;-78
2023/04/10 11:06:08;;;;;;;9.98;8.38;;;14.70;99.90;;;;;;5048262;28;20049;-76
2023/04/10 11:08:46;;;;;;;11.10;9.02;;;14.70;99.90;;;;;;5049099;28;20044;-76
2023/04/10 11:11:20;;;;;;;13.27;9.23;;;14.80;99.90;;;;;;5049354;28;20054;-78
2023/04/10 11:13:52;;;;;;;10.48;9.05;;;14.80;99.90;;;;;;5050981;28;20090;-78
2023/04/10 11:16:27;;;;;;;8.75;7.85;;;14.90;99.90;;;;;;5049645;28;20080;-77
2023/04/10 11:18:52;;;;;;;10.27;7.93;;;14.60;99.90;;;;;;5049409;28;20063;-79
2023/04/10 11:21:22;;;;;;;9.82;8.15;;;14.80;99.90;;;;;;5047782;28;20049;-77
2023/04/10 11:23:54;;;;;;;8.13;7.18;;;14.70;99.90;;;;;;5048014;28;20506;-78
2023/04/10 11:26:32;;;;;;;9.82;7.25;;;14.70;99.90;;;;;;5048572;28;20053;-77
2023/04/10 11:28:58;;;;;;;11.52;8.38;;;14.70;99.90;;;;;;5047935;28;20238;-77
2023/04/10 11:31:25;;;;;;;9.50;7.07;;;14.90;99.90;;;;;;5048381;28;20092;-78
2023/04/10 11:33:57;;;;;;;8.90;7.85;;;15.00;99.90;;;;;;5048008;28;20083;-78
2023/04/10 11:36:23;;;;;;;8.48;6.72;;;15.20;99.90;;;;;;5047115;28;20045;-77
2023/04/10 11:38:56;;;;;;;7.90;7.07;;;15.30;99.90;;;;;;5047796;28;20053;-80
2023/04/10 11:41:33;;;;;;;8.15;6.95;;;15.30;99.90;;;;;;5047865;28;20318;-77
2023/04/10 11:44:04;;;;;;;9.55;6.78;;;15.50;99.90;;;;;;5047652;28;20400;-76
2023/04/10 11:46:30;;;;;;;9.80;8.52;;;15.30;99.90;;;;;;5047748;28;20044;-78
2023/04/10 11:49:01;;;;;;;7.97;6.72;;;15.30;99.90;;;;;;5046915;28;20049;-78
2023/04/10 11:51:27;;;;;;;;;;;15.30;99.90;;;;;;5047652;28;20136;-78
2023/04/10 11:54:12;;;;;;;9.30;7.63;;;15.40;99.90;;;;;;5047172;28;19924;-79
2023/04/10 11:56:43;;;;;;;7.57;6.43;;;15.70;99.90;;;;;;5048194;28;20045;-78
2023/04/10 11:59:18;;;;;;;6.78;5.57;;;15.80;99.90;;;;;;5047840;28;20041;-79
2023/04/10 12:01:45;;;;;;;7.90;7.10;;;15.90;99.90;;;;;;5047673;28;20514;-77
2023/04/10 12:04:18;;;;;;;6.82;6.10;;;15.90;99.90;;;;;;5047474;28;20063;-78
2023/04/10 12:06:49;;;;;;;8.63;6.68;;;15.90;99.90;;;;;;5046482;28;20036;-79
2023/04/10 12:09:16;;;;;;;6.35;5.57;;;16.10;99.90;;;;;;5047688;28;20071;-78
2023/04/10 12:12:01;;;;;;;7.78;6.95;;;16.10;99.90;;;;;;5047093;28;20738;-79
2023/04/10 12:14:38;;;;;;;8.52;6.88;;;16.30;99.90;;;;;;5030952;28;20045;-77
2023/04/10 12:17:06;;;;;;;7.65;5.72;;;16.20;99.90;;;;;;5047733;28;20081;-78
2023/04/10 12:19:33;;;;;;;9.73;5.75;;;16.10;99.90;;;;;;5047766;28;20060;-77
2023/04/10 12:22:00;;;;;;;6.43;5.75;;;16.00;99.90;;;;;;5045991;28;20041;-79
2023/04/10 12:24:51;;;;;;;8.30;6.55;;;15.70;99.90;;;;;;5047333;28;20052;-77
2023/04/10 12:27:21;;;;;;;7.30;6.35;;;15.60;99.90;;;;;;5047111;28;20493;-78
2023/04/10 12:29:49;;;;;;;7.20;5.70;;;15.70;99.90;;;;;;5047207;28;20063;-78
2023/04/10 12:32:16;;;;;;;7.45;6.70;;;15.70;99.90;;;;;;5047712;28;20045;-78
2023/04/10 12:34:48;;;;;;;8.02;6.28;;;15.80;99.90;;;;;;5047768;28;20036;-77
2023/04/10 12:37:14;;;;;;;6.13;5.50;;;15.60;99.90;;;;;;5047783;28;20132;-79
2023/04/10 12:39:40;;;;;;;10.32;7.20;;;15.40;99.90;;;;;;5029615;28;20413;-77